createdAt,value
2023-01-18T00:01:19.562Z,95033.59
2023-01-18T00:03:21.062Z,95028.47
2023-01-18T00:05:25.481Z,95030.03
2023-01-18T00:07:26.805Z,95032.38
2023-01-18T00:09:28.148Z,95028.88
2023-01-18T00:11:29.481Z,95040.75
2023-01-18T00:13:30.799Z,95052.47
2023-01-18T00:15:32.108Z,95051.94
2023-01-18T00:17:33.451Z,95044.34
2023-01-18T00:19:34.981Z,95048.41
2023-01-18T00:21:36.330Z,95044.75
2023-01-18T00:23:37.665Z,95054.53
2023-01-18T00:25:38.956Z,95045.38
2023-01-18T00:27:40.257Z,95043.44
2023-01-18T00:29:41.555Z,95042.41
2023-01-18T00:31:42.904Z,95042.31
2023-01-18T00:33:44.463Z,95045.66
2023-01-18T00:35:45.805Z,95048.13
2023-01-18T00:37:47.102Z,95038.72
2023-01-18T00:39:48.399Z,95043.00
2023-01-18T00:42:08.284Z,95044.13
2023-01-18T00:44:09.583Z,95041.00
2023-01-18T00:46:10.971Z,95037.03
2023-01-18T00:48:12.401Z,95034.69
2023-01-18T00:50:13.833Z,95033.16
2023-01-18T00:52:15.130Z,95043.72
2023-01-18T00:54:16.421Z,95041.38
2023-01-18T00:56:17.758Z,95044.13
2023-01-18T00:58:19.298Z,95043.53
2023-01-18T01:00:26.647Z,95037.72
2023-01-18T01:02:27.998Z,95041.31
2023-01-18T01:04:48.372Z,95032.00
2023-01-18T01:06:49.720Z,95026.31
2023-01-18T01:08:51.012Z,95029.06
2023-01-18T01:10:52.352Z,95027.44
2023-01-18T01:13:12.211Z,95035.22
2023-01-18T01:15:32.018Z,95028.59
2023-01-18T01:17:51.930Z,95035.53
2023-01-18T01:20:11.814Z,95028.09
2023-01-18T01:22:31.774Z,95028.88
2023-01-18T01:24:51.748Z,95027.16
2023-01-18T01:26:53.057Z,95029.81
2023-01-18T01:28:54.349Z,95029.91
2023-01-18T01:30:55.748Z,95029.72
2023-01-18T01:32:57.473Z,94885.00
2023-01-18T01:34:58.978Z,95029.50
2023-01-18T01:37:00.270Z,95027.78
2023-01-18T01:39:01.799Z,95025.91
2023-01-18T01:41:03.149Z,95027.34
2023-01-18T01:43:04.514Z,95027.63
2023-01-18T01:45:06.973Z,95032.28
2023-01-18T01:47:08.279Z,95036.25
2023-01-18T01:49:09.624Z,95030.13
2023-01-18T01:51:10.921Z,95018.06
2023-01-18T01:53:12.257Z,95022.94
2023-01-18T01:55:13.720Z,95022.59
2023-01-18T01:57:15.026Z,95027.63
2023-01-18T01:59:16.362Z,95034.59
2023-01-18T02:01:17.826Z,95032.81
2023-01-18T02:03:19.339Z,95023.44
2023-01-18T02:05:20.620Z,95026.59
2023-01-18T02:07:21.954Z,95034.03
2023-01-18T02:09:23.376Z,95031.22
2023-01-18T02:11:24.710Z,95028.75
2023-01-18T02:13:26.044Z,95030.72
2023-01-18T02:15:27.338Z,95036.13
2023-01-18T02:17:30.917Z,95033.91
2023-01-18T02:19:32.246Z,95034.94
2023-01-18T02:21:33.551Z,95028.31
2023-01-18T02:23:35.042Z,95031.09
2023-01-18T02:25:36.356Z,95026.09
2023-01-18T02:27:43.585Z,95034.78
2023-01-18T02:29:45.001Z,95031.50
2023-01-18T02:31:46.327Z,95041.63
2023-01-18T02:33:47.689Z,95034.19
2023-01-18T02:35:49.658Z,95036.94
2023-01-18T02:37:51.015Z,95042.16
2023-01-18T02:39:52.431Z,95043.91
2023-01-18T02:42:12.269Z,95043.09
2023-01-18T02:44:32.218Z,94944.88
2023-01-18T02:46:36.521Z,95049.31
2023-01-18T02:48:37.866Z,95046.88
2023-01-18T02:50:39.306Z,95042.47
2023-01-18T02:52:40.669Z,95035.63
2023-01-18T02:54:41.963Z,95048.41
2023-01-18T02:56:43.284Z,95038.88
2023-01-18T02:58:44.590Z,95044.72
2023-01-18T03:00:46.013Z,95035.91
2023-01-18T03:02:47.521Z,95036.19
2023-01-18T03:04:54.704Z,95037.16
2023-01-18T03:06:57.327Z,95034.31
2023-01-18T03:08:58.715Z,95029.22
2023-01-18T03:11:00.234Z,95040.00
2023-01-18T03:13:02.160Z,95039.91
2023-01-18T03:15:05.071Z,95041.53
2023-01-18T03:17:06.379Z,95032.34
2023-01-18T03:19:26.215Z,94881.31
2023-01-18T03:21:27.558Z,95037.63
2023-01-18T03:23:37.995Z,95037.22
2023-01-18T03:25:39.338Z,95034.19
2023-01-18T03:27:59.586Z,95029.50
2023-01-18T03:30:20.923Z,95031.69
2023-01-18T03:32:40.796Z,95031.13
2023-01-18T03:34:42.618Z,95032.47
2023-01-18T03:36:44.015Z,95028.19
2023-01-18T03:38:45.308Z,95029.50
2023-01-18T03:40:46.652Z,95042.34
2023-01-18T03:42:48.526Z,95033.38
2023-01-18T03:44:49.837Z,95025.66
2023-01-18T03:46:51.185Z,95029.72
2023-01-18T03:48:52.646Z,95020.41
2023-01-18T03:50:53.999Z,95026.47
2023-01-18T03:52:55.595Z,95027.88
2023-01-18T03:54:57.152Z,95014.41
2023-01-18T03:56:58.483Z,95020.81
2023-01-18T03:58:59.788Z,95024.03
2023-01-18T04:01:04.208Z,95015.34
2023-01-18T04:03:05.646Z,95013.28
2023-01-18T04:05:06.995Z,95010.38
2023-01-18T04:07:08.288Z,95018.53
2023-01-18T04:09:09.584Z,95012.53
2023-01-18T04:11:10.890Z,95011.16
2023-01-18T04:13:12.183Z,95010.03
2023-01-18T04:15:13.530Z,95016.53
2023-01-18T04:17:14.850Z,95018.06
2023-01-18T04:19:16.123Z,95022.03
2023-01-18T04:21:17.474Z,95015.19
2023-01-18T04:23:18.798Z,95016.09
2023-01-18T04:25:20.105Z,95014.38
2023-01-18T04:27:24.150Z,95020.06
2023-01-18T04:29:25.606Z,95016.72
2023-01-18T04:31:27.010Z,95020.50
2023-01-18T04:33:28.423Z,94870.47
2023-01-18T04:35:29.778Z,95021.63
2023-01-18T04:37:34.161Z,95026.97
2023-01-18T04:39:35.499Z,95017.09
2023-01-18T04:41:36.794Z,95016.47
2023-01-18T04:43:38.087Z,95018.31
2023-01-18T04:45:39.641Z,95009.75
2023-01-18T04:47:40.993Z,95018.94
2023-01-18T04:49:42.302Z,95020.66
2023-01-18T04:51:43.590Z,95024.94
2023-01-18T04:53:44.905Z,95020.66
2023-01-18T04:55:46.246Z,95024.94
2023-01-18T04:57:47.830Z,95026.59
2023-01-18T04:59:49.178Z,95032.94
2023-01-18T05:01:50.473Z,95028.97
2023-01-18T05:03:51.866Z,95031.84
2023-01-18T05:05:53.215Z,95031.44
2023-01-18T05:07:54.535Z,95032.69
2023-01-18T05:09:56.905Z,95036.47
2023-01-18T05:11:58.211Z,95036.47
2023-01-18T05:13:59.535Z,95031.56
2023-01-18T05:16:00.876Z,95038.72
2023-01-18T05:18:02.531Z,95029.84
2023-01-18T05:20:06.356Z,95035.06
2023-01-18T05:22:07.751Z,95029.25
2023-01-18T05:24:09.134Z,95031.81
2023-01-18T05:26:14.479Z,95033.34
2023-01-18T05:28:15.806Z,95037.78
2023-01-18T05:30:17.102Z,95035.63
2023-01-18T05:32:18.997Z,95036.34
2023-01-18T05:34:20.325Z,95045.78
2023-01-18T05:36:21.641Z,95029.34
2023-01-18T05:38:23.062Z,95039.84
2023-01-18T05:40:24.370Z,95039.44
2023-01-18T05:42:25.664Z,95048.28
2023-01-18T05:44:27.003Z,95045.38
2023-01-18T05:46:28.331Z,95048.31
2023-01-18T05:48:30.084Z,95060.44
2023-01-18T05:50:31.392Z,95061.03
2023-01-18T05:52:32.706Z,95067.88
2023-01-18T05:54:34.270Z,95063.59
2023-01-18T05:56:35.626Z,95072.13
2023-01-18T05:58:37.291Z,95064.13
2023-01-18T06:00:38.604Z,95060.78
2023-01-18T06:02:39.906Z,95058.94
2023-01-18T06:04:41.239Z,95056.91
2023-01-18T06:06:42.574Z,95061.88
2023-01-18T06:08:43.975Z,95054.25
2023-01-18T06:10:45.322Z,95061.16
2023-01-18T06:12:46.752Z,95059.84
2023-01-18T06:14:48.082Z,95057.69
2023-01-18T06:16:49.383Z,95053.78
2023-01-18T06:18:50.718Z,95052.75
2023-01-18T06:20:52.069Z,95058.81
2023-01-18T06:22:53.375Z,95062.59
2023-01-18T06:24:55.219Z,95060.31
2023-01-18T06:26:57.637Z,95063.84
2023-01-18T06:28:58.966Z,95065.38
2023-01-18T06:31:00.500Z,95071.19
2023-01-18T06:33:06.673Z,95072.22
2023-01-18T06:35:07.997Z,95078.03
2023-01-18T06:37:09.302Z,95078.84
2023-01-18T06:39:10.641Z,95079.78
2023-01-18T06:41:11.938Z,95076.94
2023-01-18T06:43:14.353Z,95080.00
2023-01-18T06:45:18.172Z,95093.81
2023-01-18T06:47:20.790Z,95085.78
2023-01-18T06:49:22.089Z,95089.59
2023-01-18T06:51:26.339Z,95090.06
2023-01-18T06:53:27.698Z,95093.84
2023-01-18T06:55:29.039Z,95095.88
2023-01-18T06:57:30.387Z,95096.16
2023-01-18T06:59:31.679Z,95098.22
2023-01-18T07:01:33.222Z,95105.38
2023-01-18T07:03:34.638Z,95103.13
2023-01-18T07:05:35.977Z,95100.78
2023-01-18T07:07:37.326Z,95097.72
2023-01-18T07:09:38.614Z,95103.09
2023-01-18T07:11:43.331Z,95104.25
2023-01-18T07:13:44.653Z,95104.44
2023-01-18T07:15:45.996Z,95108.09
2023-01-18T07:17:47.352Z,95107.38
2023-01-18T07:19:48.704Z,95110.06
2023-01-18T07:21:50.275Z,95113.63
2023-01-18T07:23:52.167Z,95104.31
2023-01-18T07:25:53.668Z,95117.06
2023-01-18T07:27:55.742Z,95110.25
2023-01-18T07:29:57.058Z,95108.41
2023-01-18T07:31:58.591Z,95112.22
2023-01-18T07:33:59.994Z,95109.16
2023-01-18T07:36:01.574Z,95132.09
2023-01-18T07:38:02.912Z,95114.44
2023-01-18T07:40:04.249Z,95123.94
2023-01-18T07:42:05.649Z,95120.13
2023-01-18T07:44:07.136Z,95121.25
2023-01-18T07:46:08.503Z,95124.25
2023-01-18T07:48:10.624Z,95128.22
2023-01-18T07:50:12.354Z,95134.84
2023-01-18T07:52:13.698Z,95130.28
2023-01-18T07:54:17.026Z,95134.44
2023-01-18T07:56:18.494Z,95140.16
2023-01-18T07:58:19.955Z,95136.66
2023-01-18T08:00:21.859Z,95144.25
2023-01-18T08:02:23.173Z,95145.88
2023-01-18T08:04:24.982Z,95142.38
2023-01-18T08:06:26.440Z,95144.31
2023-01-18T08:08:28.709Z,95148.63
2023-01-18T08:10:30.054Z,95144.75
2023-01-18T08:12:31.392Z,95153.66
2023-01-18T08:14:32.704Z,95152.31
2023-01-18T08:16:34.189Z,95158.00
2023-01-18T08:18:35.539Z,95158.31
2023-01-18T08:20:36.840Z,95163.75
2023-01-18T08:22:38.137Z,95165.69
2023-01-18T08:24:39.492Z,95159.13
2023-01-18T08:26:40.851Z,95161.09
2023-01-18T08:28:42.184Z,95164.75
2023-01-18T08:30:43.552Z,95167.59
2023-01-18T08:32:44.944Z,95170.34
2023-01-18T08:34:46.273Z,95190.94
2023-01-18T08:36:48.034Z,95177.56
2023-01-18T08:38:49.502Z,95175.97
2023-01-18T08:40:50.858Z,95174.50
2023-01-18T08:42:52.146Z,95178.81
2023-01-18T08:44:53.924Z,95177.38
2023-01-18T08:46:55.230Z,95177.56
2023-01-18T08:48:56.555Z,95174.19
2023-01-18T08:50:57.882Z,95181.94
2023-01-18T08:53:00.336Z,95179.28
2023-01-18T08:55:01.886Z,95180.94
2023-01-18T08:57:04.503Z,95183.38
2023-01-18T08:59:05.908Z,95187.19
2023-01-18T09:01:07.278Z,95184.13
2023-01-18T09:03:08.790Z,95191.06
2023-01-18T09:05:10.128Z,95193.13
2023-01-18T09:07:11.423Z,95199.34
2023-01-18T09:09:12.767Z,95200.69
2023-01-18T09:11:14.187Z,95208.69
2023-01-18T09:13:15.513Z,95207.66
2023-01-18T09:15:18.186Z,95208.28
2023-01-18T09:17:21.198Z,95214.09
2023-01-18T09:19:22.501Z,95219.19
2023-01-18T09:21:23.869Z,95211.34
2023-01-18T09:23:25.175Z,95212.03
2023-01-18T09:25:26.510Z,95212.25
2023-01-18T09:27:27.816Z,95213.06
2023-01-18T09:29:29.122Z,95205.59
2023-01-18T09:31:30.795Z,95210.00
2023-01-18T09:33:37.662Z,95212.66
2023-01-18T09:35:39.462Z,95218.06
2023-01-18T09:37:40.811Z,95219.06
2023-01-18T09:39:51.382Z,95217.72
2023-01-18T09:41:53.749Z,95224.03
2023-01-18T09:43:55.043Z,95226.19
2023-01-18T09:45:56.621Z,95225.75
2023-01-18T09:47:57.961Z,95223.41
2023-01-18T09:49:59.259Z,95223.53
2023-01-18T09:52:00.567Z,95229.72
2023-01-18T09:54:02.308Z,95225.63
2023-01-18T09:56:03.663Z,95224.22
2023-01-18T09:58:04.980Z,95231.13
2023-01-18T10:00:06.298Z,95221.22
2023-01-18T10:02:07.826Z,95223.16
2023-01-18T10:04:09.206Z,95229.38
2023-01-18T10:06:10.517Z,95217.53
2023-01-18T10:08:13.525Z,95224.41
2023-01-18T10:10:15.378Z,95220.28
2023-01-18T10:12:16.695Z,95225.38
2023-01-18T10:14:18.283Z,95227.94
2023-01-18T10:16:20.336Z,95229.56
2023-01-18T10:18:21.720Z,95234.38
2023-01-18T10:20:23.178Z,95233.28
2023-01-18T10:22:24.716Z,95233.78
2023-01-18T10:24:26.419Z,95238.41
2023-01-18T10:26:27.722Z,95241.38
2023-01-18T10:28:29.032Z,95236.69
2023-01-18T10:30:30.479Z,95244.66
2023-01-18T10:32:31.791Z,95247.00
2023-01-18T10:34:33.194Z,95240.81
2023-01-18T10:36:34.546Z,95240.59
2023-01-18T10:38:36.283Z,95240.38
2023-01-18T10:40:37.674Z,95235.06
2023-01-18T10:42:39.724Z,95238.41
2023-01-18T10:44:41.320Z,95242.56
2023-01-18T10:46:42.651Z,95241.53
2023-01-18T10:48:45.178Z,95236.34
2023-01-18T10:50:46.523Z,95243.28
2023-01-18T10:52:47.852Z,95248.38
2023-01-18T10:54:49.166Z,95239.19
2023-01-18T10:56:50.574Z,95248.78
2023-01-18T10:58:52.083Z,95261.81
2023-01-18T11:00:53.555Z,95267.03
2023-01-18T11:02:54.931Z,95254.47
2023-01-18T11:04:56.884Z,95257.41
2023-01-18T11:06:58.191Z,95273.03
2023-01-18T11:08:59.528Z,95276.78
2023-01-18T11:11:00.885Z,95272.81
2023-01-18T11:13:02.229Z,95277.28
2023-01-18T11:15:03.527Z,95271.56
2023-01-18T11:17:11.364Z,95281.03
2023-01-18T11:19:12.727Z,95296.66
2023-01-18T11:21:14.036Z,95282.38
2023-01-18T11:23:16.124Z,95289.47
2023-01-18T11:25:17.432Z,95282.03
2023-01-18T11:27:18.723Z,95297.50
2023-01-18T11:29:20.071Z,95290.88
2023-01-18T11:31:22.362Z,95300.25
2023-01-18T11:33:23.890Z,95302.09
2023-01-18T11:35:25.190Z,95300.44
2023-01-18T11:37:26.518Z,95300.44
2023-01-18T11:39:27.910Z,95300.34
2023-01-18T11:41:29.201Z,95301.88
2023-01-18T11:43:30.527Z,95306.69
2023-01-18T11:45:31.996Z,95307.22
2023-01-18T11:47:33.406Z,95314.56
2023-01-18T11:49:37.098Z,95308.19
2023-01-18T11:51:39.070Z,95312.88
2023-01-18T11:53:41.525Z,95313.31
2023-01-18T11:55:43.804Z,95314.16
2023-01-18T11:57:45.089Z,95313.97
2023-01-18T11:59:46.439Z,95315.50
2023-01-18T12:01:47.728Z,95320.19
2023-01-18T12:03:49.104Z,95319.16
2023-01-18T12:05:53.032Z,95326.81
2023-01-18T12:07:54.334Z,95327.03
2023-01-18T12:09:55.638Z,95326.03
2023-01-18T12:12:01.450Z,95330.13
2023-01-18T12:14:12.899Z,95332.75
2023-01-18T12:16:14.380Z,95343.69
2023-01-18T12:18:16.034Z,95335.94
2023-01-18T12:20:20.044Z,95335.94
2023-01-18T12:22:22.242Z,95344.50
2023-01-18T12:24:23.557Z,95337.84
2023-01-18T12:26:24.876Z,95337.97
2023-01-18T12:28:26.346Z,95339.88
2023-01-18T12:30:27.975Z,95342.63
2023-01-18T12:32:29.699Z,95347.19
2023-01-18T12:34:31.374Z,95352.59
2023-01-18T12:36:32.716Z,95356.34
2023-01-18T12:38:34.028Z,95354.91
2023-01-18T12:40:35.388Z,95358.56
2023-01-18T12:42:36.726Z,95361.31
2023-01-18T12:44:38.039Z,95358.88
2023-01-18T12:46:39.994Z,95358.13
2023-01-18T12:48:41.302Z,95372.72
2023-01-18T12:50:43.634Z,95373.00
2023-01-18T12:52:44.996Z,95374.91
2023-01-18T12:54:46.327Z,95388.56
2023-01-18T12:56:47.681Z,95386.13
2023-01-18T12:58:49.022Z,95393.06
2023-01-18T13:00:50.350Z,95393.06
2023-01-18T13:02:51.820Z,95391.41
2023-01-18T13:04:53.184Z,95392.22
2023-01-18T13:06:54.621Z,95406.41
2023-01-18T13:08:55.951Z,95407.16
2023-01-18T13:10:57.245Z,95396.84
2023-01-18T13:12:58.567Z,95402.47
2023-01-18T13:15:02.249Z,95396.91
2023-01-18T13:17:03.553Z,95405.38
2023-01-18T13:19:05.625Z,95409.88
2023-01-18T13:21:06.933Z,95411.06
2023-01-18T13:23:09.698Z,95283.88
2023-01-18T13:25:10.989Z,95409.44
2023-01-18T13:27:12.320Z,95419.91
2023-01-18T13:29:13.973Z,95418.44
2023-01-18T13:31:15.371Z,95426.03
2023-01-18T13:33:17.069Z,95420.63
2023-01-18T13:35:21.295Z,95425.47
2023-01-18T13:37:23.542Z,95427.56
2023-01-18T13:39:24.866Z,95430.09
2023-01-18T13:41:26.199Z,95428.81
2023-01-18T13:43:27.546Z,95433.84
2023-01-18T13:45:28.930Z,95437.44
2023-01-18T13:47:30.389Z,95444.53
2023-01-18T13:49:37.653Z,95438.97
2023-01-18T13:51:39.610Z,95449.72
2023-01-18T13:53:40.942Z,95448.59
2023-01-18T13:55:42.230Z,95457.72
2023-01-18T13:57:43.526Z,95465.25
2023-01-18T13:59:44.861Z,95460.16
2023-01-18T14:01:48.725Z,95466.19
2023-01-18T14:03:51.167Z,95476.41
2023-01-18T14:05:52.613Z,95479.66
2023-01-18T14:07:54.026Z,95485.78
2023-01-18T14:09:55.414Z,95484.84
2023-01-18T14:11:56.951Z,95489.88
2023-01-18T14:13:59.107Z,95494.16
2023-01-18T14:16:00.501Z,95388.25
2023-01-18T14:18:01.842Z,95498.09
2023-01-18T14:20:03.205Z,95505.09
2023-01-18T14:22:05.398Z,95510.50
2023-01-18T14:24:06.736Z,95515.94
2023-01-18T14:26:08.053Z,95520.50
2023-01-18T14:28:09.364Z,95531.72
2023-01-18T14:30:10.695Z,95537.13
2023-01-18T14:32:14.910Z,95535.56
2023-01-18T14:34:16.211Z,95537.41
2023-01-18T14:36:17.568Z,95545.22
2023-01-18T14:38:19.143Z,95554.66
2023-01-18T14:40:20.506Z,95547.31
2023-01-18T14:42:21.849Z,95553.50
2023-01-18T14:44:23.155Z,95558.69
2023-01-18T14:46:24.583Z,95559.59
2023-01-18T14:48:26.380Z,95564.78
2023-01-18T14:50:27.781Z,95563.88
2023-01-18T14:52:29.142Z,95569.81
2023-01-18T14:54:30.546Z,95572.34
2023-01-18T14:56:34.964Z,95579.00
2023-01-18T14:58:36.295Z,95578.72
2023-01-18T15:00:37.646Z,95586.09
2023-01-18T15:02:39.146Z,95583.31
2023-01-18T15:04:45.785Z,95599.69
2023-01-18T15:06:47.094Z,95597.69
2023-01-18T15:08:49.929Z,95605.06
2023-01-18T15:10:51.302Z,95608.25
2023-01-18T15:12:52.693Z,95612.09
2023-01-18T15:14:55.542Z,95619.38
2023-01-18T15:16:56.876Z,95613.19
2023-01-18T15:19:02.206Z,95618.31
2023-01-18T15:21:03.540Z,95632.59
2023-01-18T15:23:05.304Z,95635.16
2023-01-18T15:25:06.593Z,95636.63
2023-01-18T15:27:08.255Z,95643.53
2023-01-18T15:29:09.707Z,95648.53
2023-01-18T15:31:11.422Z,95655.56
2023-01-18T15:33:12.772Z,95653.19
2023-01-18T15:35:14.538Z,95660.22
2023-01-18T15:37:15.871Z,95665.41
2023-01-18T15:39:17.300Z,95663.94
2023-01-18T15:41:18.645Z,95673.69
2023-01-18T15:43:19.978Z,95668.03
2023-01-18T15:45:21.271Z,95670.03
2023-01-18T15:47:25.690Z,95674.56
2023-01-18T15:49:26.990Z,95676.41
2023-01-18T15:51:47.120Z,95686.78
2023-01-18T15:53:52.385Z,95689.50
2023-01-18T15:55:53.761Z,95692.22
2023-01-18T15:57:55.054Z,95693.31
2023-01-18T15:59:58.717Z,95690.22
2023-01-18T16:02:00.251Z,95692.09
2023-01-18T16:04:04.067Z,95691.28
2023-01-18T16:06:05.426Z,95698.19
2023-01-18T16:08:15.832Z,95701.75
2023-01-18T16:10:17.558Z,95706.91
2023-01-18T16:12:18.928Z,95711.94
2023-01-18T16:14:20.339Z,95709.38
2023-01-18T16:16:21.940Z,95713.41
2023-01-18T16:18:23.290Z,95717.50
2023-01-18T16:20:24.620Z,95706.13
2023-01-18T16:22:25.918Z,95715.81
2023-01-18T16:24:27.577Z,95712.00
2023-01-18T16:26:29.090Z,95721.41
2023-01-18T16:28:30.458Z,95724.69
2023-01-18T16:30:33.384Z,95733.28
2023-01-18T16:32:34.790Z,95730.28
2023-01-18T16:34:36.119Z,95734.78
2023-01-18T16:36:42.230Z,95741.28
2023-01-18T16:38:44.066Z,95742.75
2023-01-18T16:40:45.367Z,95745.13
2023-01-18T16:42:46.696Z,95741.66
2023-01-18T16:44:48.045Z,95748.50
2023-01-18T16:46:49.396Z,95751.16
2023-01-18T16:48:56.817Z,95759.53
2023-01-18T16:51:01.218Z,95764.19
2023-01-18T16:53:06.538Z,95761.72
2023-01-18T16:55:07.848Z,95765.22
2023-01-18T16:57:09.327Z,95763.56
2023-01-18T16:59:10.852Z,95773.78
2023-01-18T17:01:12.477Z,95781.19
2023-01-18T17:03:13.830Z,95783.94
2023-01-18T17:05:15.807Z,95782.91
2023-01-18T17:07:17.319Z,95789.28
2023-01-18T17:09:18.643Z,95793.25
2023-01-18T17:11:20.011Z,95782.66
2023-01-18T17:13:22.196Z,95791.69
2023-01-18T17:15:23.601Z,95788.22
2023-01-18T17:17:24.938Z,95794.53
2023-01-18T17:19:26.272Z,95796.72
2023-01-18T17:21:30.308Z,95805.16
2023-01-18T17:23:31.642Z,95805.09
2023-01-18T17:25:32.978Z,95800.81
2023-01-18T17:27:35.070Z,95811.41
2023-01-18T17:29:36.438Z,95809.56
2023-01-18T17:31:48.086Z,95813.28
2023-01-18T17:33:53.255Z,95821.13
2023-01-18T17:35:54.625Z,95815.06
2023-01-18T17:38:01.140Z,95826.84
2023-01-18T17:40:17.163Z,95820.47
2023-01-18T17:42:30.297Z,95814.03
2023-01-18T17:44:36.865Z,95822.50
2023-01-18T17:46:41.387Z,95829.78
2023-01-18T17:48:43.103Z,95816.09
2023-01-18T17:50:44.401Z,95821.41
2023-01-18T17:52:45.819Z,95823.59
2023-01-18T17:54:47.182Z,95825.69
2023-01-18T17:56:48.492Z,95827.50
2023-01-18T17:58:49.923Z,95838.56
2023-01-18T18:00:51.875Z,95841.97
2023-01-18T18:02:53.629Z,95843.97
2023-01-18T18:04:54.976Z,95839.53
2023-01-18T18:06:58.704Z,95843.16
2023-01-18T18:09:00.130Z,95848.16
2023-01-18T18:11:04.539Z,95852.09
2023-01-18T18:13:05.903Z,95855.19
2023-01-18T18:15:07.278Z,95860.84
2023-01-18T18:17:08.587Z,95858.72
2023-01-18T18:19:10.483Z,95868.44
2023-01-18T18:21:12.007Z,95873.22
2023-01-18T18:23:13.596Z,95872.28
2023-01-18T18:25:14.929Z,95878.25
2023-01-18T18:27:16.889Z,95880.06
2023-01-18T18:29:18.395Z,95883.78
2023-01-18T18:31:20.823Z,95891.53
2023-01-18T18:33:22.929Z,95888.06
2023-01-18T18:35:26.036Z,95888.81
2023-01-18T18:37:27.875Z,95903.22
2023-01-18T18:39:29.182Z,95905.69
2023-01-18T18:41:30.474Z,95908.31
2023-01-18T18:43:31.870Z,95912.63
2023-01-18T18:45:36.243Z,95911.81
2023-01-18T18:47:38.878Z,95919.81
2023-01-18T18:49:40.305Z,95911.41
2023-01-18T18:51:41.638Z,95929.47
2023-01-18T18:53:43.082Z,95925.53
2023-01-18T18:55:44.590Z,95926.53
2023-01-18T18:57:45.882Z,95936.16
2023-01-18T18:59:47.178Z,95943.16
2023-01-18T19:01:51.776Z,95956.09
2023-01-18T19:03:53.295Z,95953.72
2023-01-18T19:05:54.611Z,95955.53
2023-01-18T19:07:56.027Z,95822.19
2023-01-18T19:09:57.331Z,95966.75
2023-01-18T19:11:58.624Z,95968.47
2023-01-18T19:14:00.123Z,95976.19
2023-01-18T19:16:01.465Z,95977.06
2023-01-18T19:18:02.818Z,95978.06
2023-01-18T19:20:04.143Z,95982.34
2023-01-18T19:22:05.447Z,95994.22
2023-01-18T19:24:06.813Z,95987.44
2023-01-18T19:26:08.150Z,95989.84
2023-01-18T19:28:09.443Z,95994.88
2023-01-18T19:30:18.980Z,95999.03
2023-01-18T19:32:20.415Z,95998.19
2023-01-18T19:34:21.963Z,96008.00
2023-01-18T19:36:29.101Z,96006.84
2023-01-18T19:38:30.435Z,95996.94
2023-01-18T19:40:31.769Z,96007.63
2023-01-18T19:42:33.058Z,96010.84
2023-01-18T19:44:34.485Z,96017.44
2023-01-18T19:46:35.977Z,96020.66
2023-01-18T19:48:39.202Z,96023.75
2023-01-18T19:50:40.534Z,96033.28
2023-01-18T19:52:41.862Z,96030.00
2023-01-18T19:54:46.195Z,96035.16
2023-01-18T19:56:47.554Z,96039.09
2023-01-18T19:58:50.003Z,96043.38
2023-01-18T20:00:51.387Z,96044.59
2023-01-18T20:02:53.344Z,96051.34
2023-01-18T20:04:57.732Z,96056.59
2023-01-18T20:06:59.162Z,96063.28
2023-01-18T20:09:00.495Z,96065.41
2023-01-18T20:11:02.227Z,96063.09
2023-01-18T20:13:03.602Z,96070.75
2023-01-18T20:15:06.156Z,96073.59
2023-01-18T20:17:07.506Z,96083.16
2023-01-18T20:19:08.800Z,96084.22
2023-01-18T20:21:14.152Z,96071.69
2023-01-18T20:23:15.483Z,96081.09
2023-01-18T20:25:17.179Z,96089.31
2023-01-18T20:27:18.612Z,96109.00
2023-01-18T20:29:20.542Z,96094.84
2023-01-18T20:31:21.950Z,96095.63
2023-01-18T20:33:23.575Z,96101.19
2023-01-18T20:35:25.055Z,96108.28
2023-01-18T20:37:26.457Z,96104.91
2023-01-18T20:39:27.794Z,96110.28
2023-01-18T20:41:29.083Z,96114.06
2023-01-18T20:43:30.458Z,96117.63
2023-01-18T20:45:31.938Z,96125.53
2023-01-18T20:47:33.328Z,96126.06
2023-01-18T20:49:38.849Z,96124.41
2023-01-18T20:51:41.651Z,96132.41
2023-01-18T20:53:45.890Z,96138.34
2023-01-18T20:55:47.245Z,96138.28
2023-01-18T20:57:52.041Z,96142.31
2023-01-18T20:59:53.689Z,96142.41
2023-01-18T21:01:55.261Z,96136.75
2023-01-18T21:03:56.741Z,96146.75
2023-01-18T21:05:58.115Z,96152.47
2023-01-18T21:08:02.480Z,96156.59
2023-01-18T21:10:03.971Z,96156.84
2023-01-18T21:12:05.304Z,96162.97
2023-01-18T21:14:06.665Z,96169.78
2023-01-18T21:16:08.042Z,96014.09
2023-01-18T21:18:09.365Z,96168.66
2023-01-18T21:20:10.700Z,96172.16
2023-01-18T21:22:12.091Z,96175.16
2023-01-18T21:24:13.418Z,96181.19
2023-01-18T21:26:14.780Z,96187.31
2023-01-18T21:28:18.982Z,96188.03
2023-01-18T21:30:20.338Z,96194.91
2023-01-18T21:32:23.075Z,96196.09
2023-01-18T21:34:24.375Z,96182.63
2023-01-18T21:36:25.711Z,96184.34
2023-01-18T21:38:27.082Z,96190.41
2023-01-18T21:40:28.421Z,96200.47
2023-01-18T21:42:48.442Z,96198.47
2023-01-18T21:45:08.435Z,96200.53
2023-01-18T21:47:09.763Z,96203.41
2023-01-18T21:49:42.877Z,96208.63
2023-01-18T21:52:07.410Z,96201.06
2023-01-18T21:54:17.602Z,96204.72
2023-01-18T21:56:18.930Z,96205.72
2023-01-18T21:58:39.246Z,96183.59
2023-01-18T22:00:40.589Z,96190.00
2023-01-18T22:02:41.967Z,96189.25
2023-01-18T22:05:03.526Z,96183.66
2023-01-18T22:07:04.874Z,96187.75
2023-01-18T22:09:06.168Z,96195.47
2023-01-18T22:11:07.471Z,96200.66
2023-01-18T22:13:08.810Z,96198.53
2023-01-18T22:15:10.151Z,96199.78
2023-01-18T22:17:13.214Z,96198.63
2023-01-18T22:19:14.515Z,96207.63
2023-01-18T22:21:15.844Z,96216.88
2023-01-18T22:23:17.147Z,96215.94
2023-01-18T22:25:18.460Z,96216.63
2023-01-18T22:27:19.823Z,96229.13
2023-01-18T22:29:21.142Z,96231.63
2023-01-18T22:31:22.475Z,96228.97
2023-01-18T22:33:23.815Z,96241.63
2023-01-18T22:35:25.116Z,96254.16
2023-01-18T22:37:27.719Z,96260.84
2023-01-18T22:39:29.060Z,96262.59
2023-01-18T22:41:30.385Z,96269.44
2023-01-18T22:43:31.742Z,96283.09
2023-01-18T22:45:33.038Z,96272.59
2023-01-18T22:47:34.371Z,96273.56
2023-01-18T22:49:35.720Z,96271.28
2023-01-18T22:51:37.053Z,96277.44
2023-01-18T22:53:38.352Z,96277.78
2023-01-18T22:55:39.903Z,96276.28
2023-01-18T22:57:41.259Z,96280.72
2023-01-18T22:59:42.601Z,96296.88
2023-01-18T23:01:43.935Z,96288.72
2023-01-18T23:03:45.413Z,96293.88
2023-01-18T23:05:46.739Z,96300.91
2023-01-18T23:07:48.103Z,96304.66
2023-01-18T23:09:51.345Z,96298.25
2023-01-18T23:11:52.765Z,96306.25
2023-01-18T23:14:12.718Z,96306.56
2023-01-18T23:16:32.855Z,96305.03
2023-01-18T23:18:34.278Z,96311.97
2023-01-18T23:20:35.622Z,96313.78
2023-01-18T23:22:36.928Z,96319.03
2023-01-18T23:24:38.230Z,96327.63
2023-01-18T23:26:39.571Z,96339.66
2023-01-18T23:28:43.797Z,96344.81
2023-01-18T23:30:45.118Z,96348.09
2023-01-18T23:32:46.467Z,96345.56
2023-01-18T23:34:47.822Z,96346.47
2023-01-18T23:36:49.207Z,96350.66
2023-01-18T23:39:09.481Z,96341.44
2023-01-18T23:41:29.363Z,96341.44
2023-01-18T23:43:49.201Z,96355.75
2023-01-18T23:46:09.173Z,96358.31
2023-01-18T23:48:29.446Z,96363.38
2023-01-18T23:50:49.248Z,96363.38
2023-01-18T23:53:09.110Z,96366.66
2023-01-18T23:55:10.469Z,96369.66
2023-01-18T23:57:11.768Z,96367.22
2023-01-18T23:59:13.860Z,96360.47
